Time;durP1;ratioP1;P1;durP2;ratioP2;P2;SDS_P1;SDS_P2;PMS_P1;PMS_P2;Temp;Humidity;BMP_temperature;BMP_pressure;BME280_temperature;BME280_humidity;BME280_pressure;Samples;Min_cycle;Max_cycle;Signal;HPM_P1;HPM_P2
2022/10/02 00:00:41;;;;;;;3.60;2.70;;;;;;;;;;5030017;28;20474;-76
2022/10/02 00:03:11;;;;;;;3.87;2.33;;;;;;;;;;5029370;28;20483;-76
2022/10/02 00:05:40;;;;;;;4.07;2.40;;;;;;;;;;5029606;28;20824;-77
2022/10/02 00:08:12;;;;;;;3.90;2.10;;;;;;;;;;5029764;28;21013;-76
2022/10/02 00:10:43;;;;;;;6.10;1.93;;;;;;;;;;5029758;28;20508;-77
2022/10/02 00:13:13;;;;;;;5.43;2.40;;;;;;;;;;5048308;28;20449;-77
2022/10/02 00:15:42;;;;;;;5.57;2.47;;;;;;;;;;5049803;28;20536;-75
2022/10/02 00:18:11;;;;;;;5.13;2.13;;;;;;;;;;5049529;28;20449;-77
2022/10/02 00:20:41;;;;;;;5.57;2.50;;;;;;;;;;5049486;28;20469;-77
2022/10/02 00:23:12;;;;;;;3.30;2.17;;;;;;;;;;5048805;28;20485;-76
2022/10/02 00:25:43;;;;;;;6.03;2.57;;;;;;;;;;5049508;28;20450;-76
2022/10/02 00:28:14;;;;;;;5.60;2.73;;;;;;;;;;5049106;28;20445;-77
2022/10/02 00:30:45;;;;;;;8.30;2.67;;;;;;;;;;5049189;28;21104;-76
2022/10/02 00:33:17;;;;;;;2.50;2.17;;;;;;;;;;5048772;28;20448;-75
2022/10/02 00:36:02;;;;;;;6.63;2.20;;;;;;;;;;5049212;28;20449;-76
2022/10/02 00:38:37;;;;;;;3.30;2.13;;;;;;;;;;5049143;28;20949;-76
2022/10/02 00:41:09;;;;;;;4.80;2.00;;;;;;;;;;5048879;28;20428;-76
2022/10/02 00:43:40;;;;;;;3.37;2.40;;;;;;;;;;5048445;28;20952;-76
2022/10/02 00:46:13;;;;;;;5.10;2.50;;;;;;;;;;5049124;28;20446;-77
2022/10/02 00:48:51;;;;;;;4.20;2.07;;;;;;;;;;5049792;28;20449;-76
2022/10/02 00:51:27;;;;;;;4.80;2.00;;;;;;;;;;5053147;28;20453;-77
2022/10/02 00:53:59;;;;;;;4.07;2.30;;;;;;;;;;5052918;28;20448;-76
2022/10/02 00:56:30;;;;;;;6.43;2.73;;;;;;;;;;5053375;28;20476;-76
2022/10/02 00:59:08;;;;;;;5.20;2.10;;;;;;;;;;5053916;28;20465;-76
2022/10/02 01:01:41;;;;;;;3.37;2.30;;;;;;;;;;5053202;28;20452;-77
2022/10/02 01:04:10;;;;;;;5.77;2.77;;;;;;;;;;5052539;28;20493;-76
2022/10/02 01:06:37;;;;;;;8.43;2.43;;;;;;;;;;5053178;28;20449;-77
2022/10/02 01:09:05;;;;;;;5.70;2.17;;;;;;;;;;5052740;28;20469;-76
2022/10/02 01:11:33;;;;;;;2.87;1.73;;;;;;;;;;5053082;28;20437;-76
2022/10/02 01:14:00;;;;;;;3.80;2.03;;;;;;;;;;5052471;28;20441;-76
2022/10/02 01:16:27;;;;;;;2.80;2.30;;;;;;;;;;5052686;28;20452;-77
2022/10/02 01:18:54;;;;;;;4.97;2.80;;;;;;;;;;5053042;28;20461;-76
2022/10/02 01:21:24;;;;;;;3.20;2.00;;;;;;;;;;5053071;28;20453;-77
2022/10/02 01:23:57;;;;;;;3.73;1.70;;;;;;;;;;5052089;28;21264;-77
2022/10/02 01:26:25;;;;;;;5.57;2.27;;;;;;;;;;5053006;28;20445;-78
2022/10/02 01:28:52;;;;;;;6.87;2.43;;;;;;;;;;5052607;28;21082;-77
2022/10/02 01:31:19;;;;;;;4.10;1.90;;;;;;;;;;5053680;28;20446;-75
2022/10/02 01:33:48;;;;;;;4.63;2.17;;;;;;;;;;5053084;28;20945;-75
2022/10/02 01:36:16;;;;;;;6.27;2.57;;;;;;;;;;5053454;28;20536;-76
2022/10/02 01:38:44;;;;;;;3.87;2.30;;;;;;;;;;5053570;28;20445;-75
2022/10/02 01:41:11;;;;;;;4.80;2.30;;;;;;;;;;5053164;28;20460;-75
2022/10/02 01:43:40;;;;;;;4.80;2.10;;;;;;;;;;5051757;28;20516;-75
2022/10/02 01:46:19;;;;;;;6.30;2.20;;;;;;;;;;5052629;28;20502;-75
2022/10/02 01:48:47;;;;;;;8.53;2.23;;;;;;;;;;5052747;28;20434;-75
2022/10/02 01:51:26;;;;;;;5.53;2.17;;;;;;;;;;5052633;28;20441;-76
2022/10/02 01:54:00;;;;;;;5.13;2.20;;;;;;;;;;5051545;28;20939;-76
2022/10/02 01:56:32;;;;;;;4.37;2.07;;;;;;;;;;5052344;28;20449;-74
2022/10/02 01:59:04;;;;;;;4.30;2.40;;;;;;;;;;5052161;28;20472;-75
2022/10/02 02:01:39;;;;;;;3.63;2.00;;;;;;;;;;5052024;28;20516;-75
2022/10/02 02:04:14;;;;;;;5.03;2.07;;;;;;;;;;5051231;28;20508;-75
2022/10/02 02:06:47;;;;;;;2.20;1.93;;;;;;;;;;5052243;28;20417;-76
2022/10/02 02:09:17;;;;;;;3.50;2.00;;;;;;;;;;5051937;28;20512;-75
2022/10/02 02:11:47;;;;;;;1.90;1.80;;;;;;;;;;5052279;28;20430;-75
2022/10/02 02:14:17;;;;;;;4.87;2.20;;;;;;;;;;5051619;28;20448;-76
2022/10/02 02:16:45;;;;;;;5.87;2.27;;;;;;;;;;5051804;28;20461;-77
2022/10/02 02:19:15;;;;;;;4.07;2.00;;;;;;;;;;5051878;28;20466;-76
2022/10/02 02:21:45;;;;;;;4.60;2.13;;;;;;;;;;5052309;28;20792;-75
2022/10/02 02:24:14;;;;;;;3.83;2.10;;;;;;;;;;5051188;28;20477;-75
2022/10/02 02:26:42;;;;;;;8.07;2.43;;;;;;;;;;5051480;28;20442;-75
2022/10/02 02:29:10;;;;;;;4.33;2.40;;;;;;;;;;5051200;28;20465;-76
2022/10/02 02:31:40;;;;;;;3.43;1.77;;;;;;;;;;5051720;28;20452;-75
2022/10/02 02:34:10;;;;;;;7.00;2.17;;;;;;;;;;5051420;28;20418;-74
2022/10/02 02:36:39;;;;;;;6.33;2.27;;;;;;;;;;5052345;28;20451;-75
2022/10/02 02:39:09;;;;;;;6.87;2.60;;;;;;;;;;5051881;28;20511;-75
2022/10/02 02:41:39;;;;;;;2.70;2.20;;;;;;;;;;5043583;28;20449;-75
2022/10/02 02:44:09;;;;;;;2.93;1.83;;;;;;;;;;5051104;28;20484;-76
2022/10/02 02:47:02;;;;;;;5.07;2.03;;;;;;;;;;5032676;28;20482;-74
2022/10/02 02:49:29;;;;;;;5.77;2.87;;;;;;;;;;5033174;28;20462;-74
2022/10/02 02:51:57;;;;;;;3.87;2.30;;;;;;;;;;5041365;28;20847;-74
2022/10/02 02:54:27;;;;;;;4.07;2.70;;;;;;;;;;5040303;28;20442;-74
2022/10/02 02:56:56;;;;;;;9.77;2.27;;;;;;;;;;5049789;28;20442;-74
2022/10/02 02:59:24;;;;;;;6.87;2.50;;;;;;;;;;5053902;28;20462;-74
2022/10/02 03:01:51;;;;;;;5.40;2.40;;;;;;;;;;5053383;28;20426;-75
2022/10/02 03:04:18;;;;;;;6.00;2.20;;;;;;;;;;5035338;28;20482;-76
2022/10/02 03:06:48;;;;;;;2.10;1.90;;;;;;;;;;5033945;28;20938;-75
2022/10/02 03:09:17;;;;;;;4.30;2.33;;;;;;;;;;5037447;28;20482;-74
2022/10/02 03:11:48;;;;;;;5.87;2.47;;;;;;;;;;5044261;28;20446;-74
2022/10/02 03:14:28;;;;;;;7.70;2.83;;;;;;;;;;5051021;28;20520;-75
2022/10/02 03:17:01;;;;;;;4.73;3.13;;;;;;;;;;5051130;28;20445;-75
2022/10/02 03:19:35;;;;;;;6.43;2.30;;;;;;;;;;5051244;28;20465;-74
2022/10/02 03:22:05;;;;;;;3.67;2.20;;;;;;;;;;5051093;28;20433;-75
2022/10/02 03:24:36;;;;;;;4.80;2.20;;;;;;;;;;5050678;28;20485;-75
2022/10/02 03:27:05;;;;;;;9.10;2.60;;;;;;;;;;5051375;28;20432;-75
2022/10/02 03:29:35;;;;;;;5.50;2.00;;;;;;;;;;5050981;28;20472;-75
2022/10/02 03:32:03;;;;;;;3.97;2.00;;;;;;;;;;5050369;28;20437;-75
2022/10/02 03:34:32;;;;;;;3.30;2.10;;;;;;;;;;5050117;28;20441;-75
2022/10/02 03:36:59;;;;;;;7.47;2.40;;;;;;;;;;5050538;28;20450;-75
2022/10/02 03:39:28;;;;;;;6.80;2.43;;;;;;;;;;5049956;28;20469;-75
2022/10/02 03:41:55;;;;;;;5.20;2.47;;;;;;;;;;5050515;28;20454;-75
2022/10/02 03:44:22;;;;;;;4.13;2.10;;;;;;;;;;5049390;28;20984;-75
2022/10/02 03:46:49;;;;;;;3.37;2.13;;;;;;;;;;5050430;28;20458;-75
2022/10/02 03:49:16;;;;;;;6.83;2.63;;;;;;;;;;5050286;28;20465;-76
2022/10/02 03:51:43;;;;;;;2.97;2.53;;;;;;;;;;5050061;28;20480;-75
2022/10/02 03:54:16;;;;;;;2.70;2.40;;;;;;;;;;5049042;28;20511;-75
2022/10/02 03:56:47;;;;;;;4.67;2.47;;;;;;;;;;5050298;28;20501;-75
2022/10/02 03:59:16;;;;;;;4.73;2.60;;;;;;;;;;5050004;28;20490;-76
2022/10/02 04:01:45;;;;;;;3.10;2.40;;;;;;;;;;5050119;28;20441;-76
2022/10/02 04:04:16;;;;;;;4.80;2.60;;;;;;;;;;5049697;28;20484;-74
2022/10/02 04:06:44;;;;;;;5.03;2.43;;;;;;;;;;5049804;28;20442;-75
2022/10/02 04:09:13;;;;;;;5.57;3.10;;;;;;;;;;5049014;28;20481;-75
2022/10/02 04:11:42;;;;;;;7.20;2.50;;;;;;;;;;5042662;28;20533;-75
2022/10/02 04:14:15;;;;;;;3.90;3.00;;;;;;;;;;5029198;28;20439;-76
2022/10/02 04:16:44;;;;;;;2.73;2.20;;;;;;;;;;5029840;28;20454;-75
2022/10/02 04:19:14;;;;;;;3.53;2.10;;;;;;;;;;5029872;28;20473;-76
2022/10/02 04:21:43;;;;;;;6.83;2.67;;;;;;;;;;5029637;28;20435;-76
2022/10/02 04:24:15;;;;;;;6.20;2.20;;;;;;;;;;5028363;28;20482;-75
2022/10/02 04:26:44;;;;;;;4.20;2.13;;;;;;;;;;5029919;28;20446;-75
2022/10/02 04:29:16;;;;;;;2.80;2.10;;;;;;;;;;5034667;28;20457;-76
2022/10/02 04:31:43;;;;;;;5.80;2.13;;;;;;;;;;5049852;28;20448;-75
2022/10/02 04:34:12;;;;;;;5.03;2.27;;;;;;;;;;5041669;28;20827;-75
2022/10/02 04:36:44;;;;;;;6.23;2.77;;;;;;;;;;5031253;28;20805;-75
2022/10/02 04:39:17;;;;;;;5.40;2.30;;;;;;;;;;5047975;28;20462;-75
2022/10/02 04:41:51;;;;;;;4.00;2.10;;;;;;;;;;5041232;28;21005;-75
2022/10/02 04:44:26;;;;;;;7.00;2.80;;;;;;;;;;5048870;28;20458;-75
2022/10/02 04:47:05;;;;;;;5.40;2.57;;;;;;;;;;5049348;28;20472;-75
2022/10/02 04:49:45;;;;;;;5.60;2.60;;;;;;;;;;5049653;28;20472;-74
2022/10/02 04:52:35;;;;;;;2.73;2.40;;;;;;;;;;5049405;28;20445;-76
2022/10/02 04:55:31;;;;;;;7.03;2.00;;;;;;;;;;5048931;28;20442;-75
2022/10/02 04:58:04;;;;;;;4.13;2.53;;;;;;;;;;5006749;28;20459;-75
2022/10/02 05:00:35;;;;;;;5.27;2.80;;;;;;;;;;5040984;28;20457;-75
2022/10/02 05:03:12;;;;;;;7.47;2.93;;;;;;;;;;5048472;28;20473;-76
2022/10/02 05:05:54;;;;;;;6.07;2.00;;;;;;;;;;5049783;28;20610;-75
2022/10/02 05:08:29;;;;;;;5.73;2.43;;;;;;;;;;5049270;28;20456;-75
2022/10/02 05:11:10;;;;;;;6.80;2.53;;;;;;;;;;5049043;28;20464;-75
2022/10/02 05:13:52;;;;;;;6.70;2.83;;;;;;;;;;5048245;28;20446;-74
2022/10/02 05:16:28;;;;;;;2.90;2.23;;;;;;;;;;5040733;28;20806;-75
2022/10/02 05:19:01;;;;;;;4.37;2.30;;;;;;;;;;5049117;28;20491;-75
2022/10/02 05:21:34;;;;;;;4.57;2.17;;;;;;;;;;5049518;28;20444;-76
2022/10/02 05:24:07;;;;;;;4.60;2.30;;;;;;;;;;5048992;28;20453;-75
2022/10/02 05:26:55;;;;;;;5.43;2.67;;;;;;;;;;5049231;28;20477;-75
2022/10/02 05:29:40;;;;;;;3.73;2.00;;;;;;;;;;5052009;28;20454;-75
2022/10/02 05:32:15;;;;;;;4.40;2.60;;;;;;;;;;5049303;28;20441;-74
2022/10/02 05:34:50;;;;;;;4.90;2.60;;;;;;;;;;5048687;28;20438;-75
2022/10/02 05:37:25;;;;;;;4.27;2.60;;;;;;;;;;5053272;28;20436;-74
2022/10/02 05:39:56;;;;;;;3.57;2.60;;;;;;;;;;5052807;28;20468;-75
2022/10/02 05:42:27;;;;;;;4.80;3.10;;;;;;;;;;5053004;28;20535;-74
2022/10/02 05:44:57;;;;;;;6.50;3.50;;;;;;;;;;5051411;28;20473;-75
2022/10/02 05:47:29;;;;;;;5.90;3.10;;;;;;;;;;5053262;28;20441;-75
2022/10/02 05:49:58;;;;;;;5.77;2.90;;;;;;;;;;5054771;28;20465;-76
2022/10/02 05:52:30;;;;;;;8.83;3.90;;;;;;;;;;5052625;28;20449;-75
2022/10/02 05:54:59;;;;;;;6.87;3.80;;;;;;;;;;5053599;28;20449;-75
2022/10/02 05:57:28;;;;;;;4.70;4.07;;;;;;;;;;5053609;28;20445;-75
2022/10/02 05:59:59;;;;;;;5.77;3.13;;;;;;;;;;5052773;28;20468;-74
2022/10/02 06:02:32;;;;;;;2.73;2.40;;;;;;;;;;5052996;28;20446;-76
2022/10/02 06:05:03;;;;;;;2.87;2.60;;;;;;;;;;5052923;28;20473;-76
2022/10/02 06:07:31;;;;;;;2.83;2.43;;;;;;;;;;5055476;28;20457;-76
2022/10/02 06:10:00;;;;;;;4.20;3.10;;;;;;;;;;5054845;28;20488;-75
2022/10/02 06:12:30;;;;;;;4.60;3.03;;;;;;;;;;5053934;28;20445;-76
2022/10/02 06:15:00;;;;;;;7.90;3.57;;;;;;;;;;5058166;28;20444;-76
2022/10/02 06:17:30;;;;;;;5.07;3.47;;;;;;;;;;5054061;28;20441;-75
2022/10/02 06:20:00;;;;;;;10.40;4.30;;;;;;;;;;5055039;28;20461;-76
2022/10/02 06:22:29;;;;;;;7.23;5.50;;;;;;;;;;5055065;28;20889;-76
2022/10/02 06:24:58;;;;;;;7.30;3.57;;;;;;;;;;5053957;28;20503;-75
2022/10/02 06:27:28;;;;;;;6.17;3.37;;;;;;;;;;5052414;28;20456;-76
2022/10/02 06:29:59;;;;;;;7.10;3.17;;;;;;;;;;5052221;28;20489;-76
2022/10/02 06:32:30;;;;;;;5.93;3.20;;;;;;;;;;5052323;28;20456;-76
2022/10/02 06:34:59;;;;;;;6.03;2.80;;;;;;;;;;5052525;28;20495;-76
2022/10/02 06:37:36;;;;;;;5.90;3.03;;;;;;;;;;5052435;28;20463;-76
2022/10/02 06:40:11;;;;;;;7.13;3.93;;;;;;;;;;5060418;28;20457;-76
2022/10/02 06:42:44;;;;;;;6.37;3.97;;;;;;;;;;5051750;28;20469;-75
2022/10/02 06:45:18;;;;;;;9.67;3.73;;;;;;;;;;5051129;28;20477;-76
2022/10/02 06:47:57;;;;;;;5.80;3.90;;;;;;;;;;5050364;28;20488;-76
2022/10/02 06:50:30;;;;;;;5.07;3.90;;;;;;;;;;5052785;28;21032;-76
2022/10/02 06:53:02;;;;;;;6.33;4.07;;;;;;;;;;5052289;28;20434;-76
2022/10/02 06:55:34;;;;;;;6.70;3.17;;;;;;;;;;5053074;28;20980;-76
2022/10/02 06:58:05;;;;;;;4.80;3.80;;;;;;;;;;5051555;28;20816;-76
2022/10/02 07:00:34;;;;;;;4.03;3.30;;;;;;;;;;5053370;28;20964;-76
2022/10/02 07:03:15;;;;;;;7.00;3.80;;;;;;;;;;5052657;28;20450;-76
2022/10/02 07:06:04;;;;;;;5.70;4.00;;;;;;;;;;5052030;28;20480;-77
2022/10/02 07:08:38;;;;;;;6.20;3.73;;;;;;;;;;5050867;28;20454;-76
2022/10/02 07:11:10;;;;;;;4.93;3.93;;;;;;;;;;5048982;28;20445;-76
2022/10/02 07:13:41;;;;;;;6.77;4.00;;;;;;;;;;5032070;28;20668;-76
2022/10/02 07:16:16;;;;;;;6.13;4.53;;;;;;;;;;5032462;28;20851;-75
2022/10/02 07:18:54;;;;;;;11.97;7.27;;;;;;;;;;5030650;28;20957;-76
2022/10/02 07:21:27;;;;;;;6.37;5.03;;;;;;;;;;5031178;28;20464;-76
2022/10/02 07:23:57;;;;;;;9.73;4.90;;;;;;;;;;5030300;28;20443;-76
2022/10/02 07:26:32;;;;;;;8.53;4.93;;;;;;;;;;5032292;28;20562;-76
2022/10/02 07:29:05;;;;;;;5.83;4.67;;;;;;;;;;5030789;28;20461;-76
2022/10/02 07:31:39;;;;;;;7.30;4.30;;;;;;;;;;5030805;28;20450;-76
2022/10/02 07:34:12;;;;;;;11.00;4.70;;;;;;;;;;5033253;28;20450;-76
2022/10/02 07:36:46;;;;;;;7.37;4.73;;;;;;;;;;5031002;28;20466;-76
2022/10/02 07:39:19;;;;;;;6.90;4.43;;;;;;;;;;5030347;28;20466;-76
2022/10/02 07:42:01;;;;;;;9.10;5.00;;;;;;;;;;5032445;28;20454;-76
2022/10/02 07:44:34;;;;;;;8.13;4.90;;;;;;;;;;5028797;28;20457;-76
2022/10/02 07:47:04;;;;;;;7.30;4.83;;;;;;;;;;5040924;28;20449;-76
2022/10/02 07:49:37;;;;;;;11.07;5.40;;;;;;;;;;5049886;28;20469;-76
2022/10/02 07:52:11;;;;;;;9.00;5.30;;;;;;;;;;5049551;28;20456;-76
2022/10/02 07:54:44;;;;;;;7.80;4.87;;;;;;;;;;5030734;28;20455;-77
2022/10/02 07:57:19;;;;;;;6.70;4.80;;;;;;;;;;5030105;28;20453;-76
2022/10/02 07:59:47;;;;;;;10.73;4.90;;;;;;;;;;5030076;28;20465;-76
2022/10/02 08:02:19;;;;;;;7.87;5.93;;;;;;;;;;5029515;28;20958;-76
2022/10/02 08:04:46;;;;;;;6.47;4.40;;;;;;;;;;5029010;28;20454;-76
2022/10/02 08:07:15;;;;;;;7.07;4.47;;;;;;;;;;5031312;28;20844;-76
2022/10/02 08:09:44;;;;;;;8.07;5.00;;;;;;;;;;5029659;28;20946;-76
2022/10/02 08:12:14;;;;;;;8.27;4.60;;;;;;;;;;5040953;28;20461;-76
2022/10/02 08:14:44;;;;;;;7.23;5.10;;;;;;;;;;5049194;28;20429;-76
2022/10/02 08:17:20;;;;;;;5.90;4.30;;;;;;;;;;5052373;28;20460;-76
2022/10/02 08:19:57;;;;;;;9.00;6.40;;;;;;;;;;5056198;28;20758;-76
2022/10/02 08:22:44;;;;;;;5.50;5.00;;;;;;;;;;5058788;28;20513;-76
2022/10/02 08:25:17;;;;;;;8.40;4.30;;;;;;;;;;5062815;28;20477;-76
2022/10/02 08:27:51;;;;;;;7.63;4.20;;;;;;;;;;5067442;28;20430;-75
2022/10/02 08:30:19;;;;;;;6.93;4.40;;;;;;;;;;5060677;28;20491;-77
2022/10/02 08:32:46;;;;;;;5.20;4.63;;;;;;;;;;5050148;28;20453;-75
2022/10/02 08:35:14;;;;;;;7.53;5.20;;;;;;;;;;5050592;28;20925;-77
2022/10/02 08:37:51;;;;;;;4.70;4.17;;;;;;;;;;5050137;28;20449;-77
2022/10/02 08:40:28;;;;;;;10.50;5.33;;;;;;;;;;5049429;28;20468;-77
2022/10/02 08:43:14;;;;;;;4.47;4.10;;;;;;;;;;5049145;28;20471;-76
2022/10/02 08:46:11;;;;;;;8.47;5.30;;;;;;;;;;5042940;28;20477;-77
2022/10/02 08:49:12;;;;;;;7.27;4.60;;;;;;;;;;5049483;28;20448;-75
2022/10/02 08:51:57;;;;;;;5.23;4.73;;;;;;;;;;5049557;28;20816;-76
2022/10/02 08:54:44;;;;;;;9.13;4.73;;;;;;;;;;5048858;28;20437;-76
2022/10/02 08:57:28;;;;;;;11.00;9.40;;;;;;;;;;5028919;28;20453;-78
2022/10/02 09:00:05;;;;;;;4.83;4.30;;;;;;;;;;5048733;28;20514;-76
2022/10/02 09:02:53;;;;;;;6.10;4.60;;;;;;;;;;5049183;28;20460;-76
2022/10/02 09:05:46;;;;;;;6.60;4.27;;;;;;;;;;5015389;28;20482;-75
2022/10/02 09:08:28;;;;;;;8.27;4.53;;;;;;;;;;5029321;28;21062;-76
2022/10/02 09:11:13;;;;;;;9.00;4.77;;;;;;;;;;5009375;28;20485;-76
2022/10/02 09:14:08;;;;;;;5.70;4.47;;;;;;;;;;5052584;28;20450;-76
2022/10/02 09:16:40;;;;;;;6.80;3.87;;;;;;;;;;5053593;28;20445;-76
2022/10/02 09:19:18;;;;;;;5.17;3.93;;;;;;;;;;5053692;28;20458;-75
2022/10/02 09:21:51;;;;;;;8.70;3.60;;;;;;;;;;5052587;28;20536;-76
2022/10/02 09:24:32;;;;;;;6.23;4.20;;;;;;;;;;5044584;28;20488;-76
2022/10/02 09:27:18;;;;;;;4.80;3.90;;;;;;;;;;5044953;28;20484;-78
2022/10/02 09:30:04;;;;;;;6.97;3.83;;;;;;;;;;5052712;28;20467;-76
2022/10/02 09:32:55;;;;;;;6.57;3.20;;;;;;;;;;5034461;28;20446;-76
2022/10/02 09:35:36;;;;;;;4.90;3.60;;;;;;;;;;5022094;28;20454;-76
2022/10/02 09:38:20;;;;;;;6.17;3.80;;;;;;;;;;5032491;28;20446;-76
2022/10/02 09:41:14;;;;;;;5.30;3.53;;;;;;;;;;5033158;28;20462;-77
2022/10/02 09:44:02;;;;;;;4.10;3.70;;;;;;;;;;5032721;28;20450;-77
2022/10/02 09:46:51;;;;;;;5.10;4.27;;;;;;;;;;5033764;28;20840;-75
2022/10/02 09:49:32;;;;;;;9.70;4.80;;;;;;;;;;5033616;28;20462;-77
2022/10/02 09:52:14;;;;;;;5.10;3.70;;;;;;;;;;5033935;28;20442;-76
2022/10/02 09:54:51;;;;;;;13.50;3.97;;;;;;;;;;5033014;28;20438;-76
2022/10/02 09:57:39;;;;;;;4.83;3.43;;;;;;;;;;5032352;28;20446;-76
2022/10/02 10:00:13;;;;;;;4.93;3.60;;;;;;;;;;5046596;28;20469;-76
2022/10/02 10:03:11;;;;;;;4.83;3.77;;;;;;;;;;5052075;28;20452;-75
2022/10/02 10:05:57;;;;;;;4.90;3.20;;;;;;;;;;5010571;28;20553;-76
2022/10/02 10:08:45;;;;;;;4.50;3.50;;;;;;;;;;5048320;28;20456;-76
2022/10/02 10:11:28;;;;;;;3.73;3.33;;;;;;;;;;5048768;28;20452;-76
2022/10/02 10:14:08;;;;;;;4.73;4.30;;;;;;;;;;5050659;28;20507;-75
2022/10/02 10:16:46;;;;;;;5.93;4.50;;;;;;;;;;5052364;28;20433;-77
2022/10/02 10:19:31;;;;;;;5.13;3.93;;;;;;;;;;5036859;28;20902;-76
2022/10/02 10:22:11;;;;;;;5.10;4.20;;;;;;;;;;5023858;28;20902;-76
2022/10/02 10:24:53;;;;;;;3.30;3.00;;;;;;;;;;5031942;28;20462;-77
2022/10/02 10:27:34;;;;;;;4.30;2.97;;;;;;;;;;5032296;28;20486;-75
2022/10/02 10:30:08;;;;;;;3.47;3.17;;;;;;;;;;5032042;28;20465;-76
2022/10/02 10:32:53;;;;;;;3.03;2.73;;;;;;;;;;5031394;28;20450;-75
2022/10/02 10:35:25;;;;;;;2.83;2.63;;;;;;;;;;5031368;28;20446;-76
2022/10/02 10:40:55;;;;;;;2.23;2.07;;;;;;;;;;5031701;28;20438;-76
2022/10/02 10:43:40;;;;;;;2.30;2.10;;;;;;;;;;5031228;28;20434;-76
2022/10/02 10:46:12;;;;;;;2.33;2.20;;;;;;;;;;5031278;28;20517;-75
2022/10/02 10:48:47;;;;;;;2.13;2.03;;;;;;;;;;5031321;28;20457;-76
2022/10/02 10:51:28;;;;;;;2.33;2.07;;;;;;;;;;5031424;28;20438;-76
2022/10/02 10:54:10;;;;;;;1.80;1.70;;;;;;;;;;5031011;28;20458;-75
2022/10/02 10:56:38;;;;;;;1.70;1.70;;;;;;;;;;5031072;28;20442;-75
2022/10/02 10:59:17;;;;;;;2.63;1.70;;;;;;;;;;5031344;28;20485;-76
2022/10/02 11:01:50;;;;;;;2.07;1.97;;;;;;;;;;5031393;28;20457;-76
2022/10/02 11:04:31;;;;;;;2.03;1.90;;;;;;;;;;5030944;28;20825;-76
2022/10/02 11:07:06;;;;;;;2.10;2.00;;;;;;;;;;5047826;28;20477;-76
2022/10/02 11:09:44;;;;;;;2.63;2.30;;;;;;;;;;5050844;28;20465;-75
2022/10/02 11:12:20;;;;;;;1.83;1.73;;;;;;;;;;5051389;28;21016;-76
2022/10/02 11:14:56;;;;;;;2.20;2.10;;;;;;;;;;5050492;28;20923;-76
2022/10/02 11:17:35;;;;;;;2.30;1.90;;;;;;;;;;5047912;28;20813;-76
2022/10/02 11:20:08;;;;;;;3.07;2.10;;;;;;;;;;5045446;28;20829;-77
2022/10/02 11:22:45;;;;;;;3.00;2.70;;;;;;;;;;5049281;28;20498;-76
2022/10/02 11:25:30;;;;;;;1.93;1.83;;;;;;;;;;5060382;28;20431;-75
2022/10/02 11:28:11;;;;;;;2.60;2.37;;;;;;;;;;5069615;28;20492;-75
2022/10/02 11:30:48;;;;;;;2.30;2.13;;;;;;;;;;5055092;28;20477;-77
2022/10/02 11:33:43;;;;;;;1.80;1.70;;;;;;;;;;5052289;28;20504;-77
2022/10/02 11:36:25;;;;;;;2.00;1.30;;;;;;;;;;5011175;28;21244;-75
2022/10/02 11:39:04;;;;;;;1.10;1.10;;;;;;;;;;5029426;28;20446;-76
2022/10/02 11:41:50;;;;;;;1.60;1.50;;;;;;;;;;5031027;28;20541;-77
2022/10/02 11:44:32;;;;;;;1.37;0.87;;;;;;;;;;5030623;28;20439;-76
2022/10/02 11:47:15;;;;;;;1.50;1.40;;;;;;;;;;5029149;28;20485;-77
2022/10/02 11:49:59;;;;;;;1.20;1.20;;;;;;;;;;5030341;28;20532;-77
2022/10/02 11:52:37;;;;;;;1.17;1.07;;;;;;;;;;5029910;28;20450;-77
2022/10/02 11:55:11;;;;;;;1.50;1.40;;;;;;;;;;5030406;28;20441;-76
2022/10/02 11:57:46;;;;;;;0.93;0.93;;;;;;;;;;5030066;28;20457;-76
2022/10/02 12:00:17;;;;;;;0.70;0.70;;;;;;;;;;5030474;28;20504;-76
2022/10/02 12:02:51;;;;;;;1.60;0.80;;;;;;;;;;5030557;28;20530;-76
2022/10/02 12:05:29;;;;;;;0.97;0.97;;;;;;;;;;5030457;28;20485;-77
2022/10/02 12:08:00;;;;;;;0.83;0.83;;;;;;;;;;5030344;28;20486;-76
2022/10/02 12:10:34;;;;;;;2.43;1.30;;;;;;;;;;5030099;28;20561;-77
2022/10/02 12:13:10;;;;;;;0.73;0.73;;;;;;;;;;5029232;28;20946;-77
2022/10/02 12:15:45;;;;;;;0.90;0.90;;;;;;;;;;5030008;28;20962;-77
2022/10/02 12:18:24;;;;;;;1.03;1.03;;;;;;;;;;5030531;28;20835;-77
2022/10/02 12:26:59;;;;;;;0.93;0.93;;;;;;;;;;5051020;28;20889;-77
2022/10/02 12:29:31;;;;;;;0.80;0.80;;;;;;;;;;5034955;28;20477;-77
2022/10/02 12:32:06;;;;;;;0.90;0.90;;;;;;;;;;5032314;28;20443;-76
2022/10/02 12:34:40;;;;;;;1.30;0.90;;;;;;;;;;5030255;28;20934;-77
2022/10/02 12:37:12;;;;;;;1.53;1.47;;;;;;;;;;5029965;28;21121;-76
2022/10/02 12:39:44;;;;;;;0.80;0.80;;;;;;;;;;5029892;28;20825;-76
2022/10/02 12:42:25;;;;;;;1.40;1.30;;;;;;;;;;5030398;28;21219;-76
2022/10/02 12:45:10;;;;;;;1.97;1.87;;;;;;;;;;5028980;28;20862;-76
2022/10/02 12:47:43;;;;;;;1.33;1.23;;;;;;;;;;5040144;28;20461;-76
2022/10/02 12:50:19;;;;;;;1.43;1.13;;;;;;;;;;5055587;28;20443;-78
2022/10/02 12:53:17;;;;;;;1.47;1.17;;;;;;;;;;5055699;28;20441;-76
2022/10/02 12:55:55;;;;;;;2.23;1.37;;;;;;;;;;5054815;28;20445;-76
2022/10/02 12:58:25;;;;;;;1.10;1.10;;;;;;;;;;5051312;28;20449;-76
2022/10/02 13:01:11;;;;;;;1.40;1.30;;;;;;;;;;5035619;28;20465;-76
2022/10/02 13:03:49;;;;;;;1.30;1.20;;;;;;;;;;5029450;28;21047;-76
2022/10/02 13:06:35;;;;;;;1.10;1.10;;;;;;;;;;5029886;28;20442;-76
2022/10/02 13:09:17;;;;;;;1.30;1.20;;;;;;;;;;5038240;28;20491;-76
2022/10/02 13:11:59;;;;;;;0.90;0.90;;;;;;;;;;5049799;28;20456;-75
2022/10/02 13:14:45;;;;;;;0.83;0.83;;;;;;;;;;5049208;28;20969;-76
2022/10/02 13:17:19;;;;;;;0.97;0.97;;;;;;;;;;5049850;28;20434;-76
2022/10/02 13:19:53;;;;;;;0.80;0.80;;;;;;;;;;5050159;28;20473;-76
2022/10/02 13:22:24;;;;;;;0.93;0.93;;;;;;;;;;5049872;28;20445;-76
2022/10/02 13:24:58;;;;;;;1.00;1.00;;;;;;;;;;5049513;28;20430;-76
2022/10/02 13:27:30;;;;;;;1.10;1.10;;;;;;;;;;5049306;28;20971;-76
2022/10/02 13:30:05;;;;;;;0.80;0.80;;;;;;;;;;5050029;28;20457;-76
2022/10/02 13:32:41;;;;;;;0.90;0.90;;;;;;;;;;5049234;28;20503;-75
2022/10/02 13:35:19;;;;;;;0.77;0.77;;;;;;;;;;5050214;28;20529;-76
2022/10/02 13:37:54;;;;;;;1.20;1.10;;;;;;;;;;5049506;28;20960;-76
2022/10/02 13:40:26;;;;;;;1.20;1.10;;;;;;;;;;5049485;28;20526;-76
2022/10/02 13:43:08;;;;;;;0.80;0.80;;;;;;;;;;5049153;28;20457;-76
2022/10/02 13:45:37;;;;;;;1.07;1.07;;;;;;;;;;5049511;28;20540;-76
2022/10/02 13:48:06;;;;;;;1.80;1.23;;;;;;;;;;5049652;28;21051;-75
2022/10/02 13:50:39;;;;;;;1.10;1.10;;;;;;;;;;5049604;28;20464;-77
2022/10/02 13:53:23;;;;;;;0.70;0.70;;;;;;;;;;5049115;28;20441;-76
2022/10/02 13:55:53;;;;;;;0.77;0.77;;;;;;;;;;5042641;28;20453;-76
2022/10/02 13:58:37;;;;;;;1.20;0.90;;;;;;;;;;5053097;28;20472;-76
2022/10/02 14:01:12;;;;;;;0.60;0.60;;;;;;;;;;5052955;28;20499;-76
2022/10/02 14:04:00;;;;;;;0.60;0.60;;;;;;;;;;5053063;28;20433;-77
2022/10/02 14:06:29;;;;;;;2.37;0.63;;;;;;;;;;5035485;28;20941;-76
2022/10/02 14:09:02;;;;;;;0.80;0.73;;;;;;;;;;5052906;28;20461;-75
2022/10/02 14:11:36;;;;;;;1.17;0.73;;;;;;;;;;5047557;28;20438;-76
2022/10/02 14:14:11;;;;;;;0.60;0.60;;;;;;;;;;5032748;28;20568;-76
2022/10/02 14:16:53;;;;;;;0.60;0.60;;;;;;;;;;5033280;28;20458;-77
2022/10/02 14:19:27;;;;;;;0.60;0.60;;;;;;;;;;5031443;28;20512;-76
2022/10/02 14:22:03;;;;;;;2.33;1.00;;;;;;;;;;5033338;28;20957;-75
2022/10/02 14:25:02;;;;;;;2.83;0.90;;;;;;;;;;5032919;28;20447;-77
2022/10/02 14:27:48;;;;;;;1.80;1.00;;;;;;;;;;5034897;28;20481;-75
2022/10/02 14:30:19;;;;;;;1.27;1.27;;;;;;;;;;5036164;28;20479;-77
2022/10/02 14:32:52;;;;;;;1.20;1.10;;;;;;;;;;5042876;28;20454;-76
2022/10/02 14:35:33;;;;;;;0.60;0.60;;;;;;;;;;5038427;28;20938;-76
2022/10/02 14:38:16;;;;;;;0.80;0.80;;;;;;;;;;5056930;28;20437;-76
2022/10/02 14:40:50;;;;;;;0.97;0.97;;;;;;;;;;5057661;28;20451;-76
2022/10/02 14:43:25;;;;;;;1.00;0.90;;;;;;;;;;5057217;28;20442;-75
2022/10/02 14:46:15;;;;;;;0.63;0.63;;;;;;;;;;5048697;28;20442;-76
2022/10/02 14:48:51;;;;;;;0.63;0.63;;;;;;;;;;5029988;28;20477;-75
2022/10/02 14:51:25;;;;;;;0.70;0.70;;;;;;;;;;5033079;28;20521;-76
2022/10/02 14:53:57;;;;;;;0.90;0.80;;;;;;;;;;5032920;28;20454;-76
2022/10/02 14:56:40;;;;;;;1.10;1.00;;;;;;;;;;5052133;28;20454;-76
2022/10/02 14:59:13;;;;;;;1.10;1.00;;;;;;;;;;5056437;28;20571;-76
2022/10/02 15:01:44;;;;;;;2.00;1.27;;;;;;;;;;5056894;28;20433;-75
2022/10/02 15:04:23;;;;;;;1.60;1.40;;;;;;;;;;5052509;28;20447;-76
2022/10/02 15:06:58;;;;;;;1.13;1.03;;;;;;;;;;5050264;28;20452;-76
2022/10/02 15:09:28;;;;;;;1.07;1.07;;;;;;;;;;5056086;28;20457;-75
2022/10/02 15:12:00;;;;;;;0.70;0.70;;;;;;;;;;5066235;28;20410;-76
2022/10/02 15:14:34;;;;;;;1.07;1.00;;;;;;;;;;5076573;28;20426;-76
2022/10/02 15:19:52;;;;;;;1.70;1.63;;;;;;;;;;5076713;28;20468;-74
2022/10/02 15:22:21;;;;;;;1.60;1.17;;;;;;;;;;5064286;28;20901;-76
2022/10/02 15:24:54;;;;;;;1.27;1.27;;;;;;;;;;5053403;28;20943;-76
2022/10/02 15:27:23;;;;;;;1.20;1.20;;;;;;;;;;5052758;28;20535;-76
2022/10/02 15:30:00;;;;;;;1.20;1.20;;;;;;;;;;5052024;28;20473;-75
2022/10/02 15:32:36;;;;;;;1.40;1.30;;;;;;;;;;5051523;28;20797;-76
2022/10/02 15:35:15;;;;;;;1.57;1.50;;;;;;;;;;5051165;28;20937;-76
2022/10/02 15:37:45;;;;;;;1.50;1.37;;;;;;;;;;5051498;28;20914;-76
2022/10/02 15:40:22;;;;;;;1.20;1.20;;;;;;;;;;5051040;28;20469;-76